Terminal Aerodrome Forecast
Issued by NWS

Home | Current Version | Previous Version | Text Only | Print | Product List | Glossary On
Versions: 1 2 3 4 5 6 7 8 9 10 11 12 13 14 15 16 17 18 19 20 21 22 23 24 25 26 27 28
000
FTUS41 KBOX 212320
TAFBAF
TAF
KBAF 212320Z 2200/2224 31008KT P6SM SKC
     FM220400 29004KT P6SM FEW140
     FM221600 21006KT P6SM SCT150
     FM222100 22008KT P6SM BKN060=

USA.gov is the U.S. government's official web portal to all federal, state and local government web resources and services.